Time;durP1;ratioP1;P1;durP2;ratioP2;P2;SDS_P1;SDS_P2;PMS_P1;PMS_P2;Temp;Humidity;BMP_temperature;BMP_pressure;BME280_temperature;BME280_humidity;BME280_pressure;Samples;Min_cycle;Max_cycle;Signal;HPM_P1;HPM_P2
2021/01/21 00:00:35;;;;;;;18.97;10.90;;;11.70;41.20;;;;;;5024984;28;20865;-84
2021/01/21 00:03:02;;;;;;;21.80;11.30;;;11.20;36.50;;;;;;5017338;28;20458;-83
2021/01/21 00:05:29;;;;;;;18.27;9.80;;;11.30;40.80;;;;;;5017183;28;20485;-83
2021/01/21 00:07:55;;;;;;;16.90;10.83;;;10.60;36.80;;;;;;5017649;28;20470;-83
2021/01/21 00:10:22;;;;;;;16.67;10.10;;;10.30;41.50;;;;;;5029003;28;20779;-84
2021/01/21 00:12:50;;;;;;;21.37;11.50;;;10.00;40.60;;;;;;5036575;28;20453;-84
2021/01/21 00:15:16;;;;;;;20.40;10.10;;;9.90;39.80;;;;;;5024191;28;20842;-83
2021/01/21 00:17:43;;;;;;;15.70;7.27;;;10.40;42.40;;;;;;5019012;28;20470;-83
2021/01/21 00:20:10;;;;;;;13.83;7.10;;;10.80;37.50;;;;;;5029620;28;20453;-84
2021/01/21 00:22:37;;;;;;;14.23;8.50;;;11.10;39.20;;;;;;5023835;28;20565;-84
2021/01/21 00:25:04;;;;;;;15.67;8.13;;;11.30;40.10;;;;;;5006281;28;20490;-84
2021/01/21 00:27:31;;;;;;;17.83;8.63;;;11.60;40.30;;;;;;5010805;28;20460;-84
2021/01/21 00:29:58;;;;;;;17.00;9.50;;;11.70;40.50;;;;;;5017137;28;20466;-84
2021/01/21 00:32:24;;;;;;;15.17;8.40;;;11.90;40.80;;;;;;5019253;28;20486;-83
2021/01/21 00:34:51;;;;;;;18.43;8.70;;;11.80;39.40;;;;;;5035690;28;21079;-83
2021/01/21 00:37:18;;;;;;;29.50;12.23;;;11.90;41.00;;;;;;5045939;28;20477;-84
2021/01/21 00:39:44;;;;;;;23.77;11.13;;;12.00;37.60;;;;;;5040075;28;20879;-84
2021/01/21 00:42:10;;;;;;;19.60;11.40;;;11.30;36.60;;;;;;5017594;28;20502;-83
2021/01/21 00:44:37;;;;;;;17.37;11.20;;;10.40;38.60;;;;;;5010925;28;20561;-85
2021/01/21 00:47:04;;;;;;;19.30;10.73;;;10.20;41.50;;;;;;5007396;28;20828;-84
2021/01/21 00:49:31;;;;;;;14.70;9.80;;;10.30;40.50;;;;;;5018903;28;20466;-84
2021/01/21 00:51:57;;;;;;;14.90;10.17;;;10.40;41.00;;;;;;5029542;28;20600;-84
2021/01/21 00:54:24;;;;;;;16.33;9.53;;;10.80;39.80;;;;;;5025621;28;20486;-85
2021/01/21 00:56:50;;;;;;;14.90;8.70;;;10.60;38.60;;;;;;5036085;28;20599;-84
2021/01/21 00:59:17;;;;;;;13.90;9.07;;;10.50;36.30;;;;;;5026795;28;20461;-84
2021/01/21 01:01:43;;;;;;;16.60;9.30;;;10.70;42.30;;;;;;5016475;28;20564;-84
2021/01/21 01:04:11;;;;;;;14.63;8.27;;;10.70;40.50;;;;;;5018219;28;20482;-84
2021/01/21 01:06:37;;;;;;;16.90;9.17;;;9.90;40.60;;;;;;5018228;28;20486;-84
2021/01/21 01:09:04;;;;;;;14.20;8.73;;;9.30;40.60;;;;;;5016500;28;20469;-84
2021/01/21 01:11:30;;;;;;;16.63;8.47;;;9.30;42.60;;;;;;5025528;28;20458;-84
2021/01/21 01:13:57;;;;;;;13.47;7.93;;;9.70;42.00;;;;;;5028653;28;20486;-84
2021/01/21 01:16:24;;;;;;;13.07;7.53;;;9.80;42.10;;;;;;5017961;28;20484;-84
2021/01/21 01:18:50;;;;;;;12.40;7.30;;;10.80;42.90;;;;;;5016601;28;20523;-84
2021/01/21 01:21:18;;;;;;;11.13;6.77;;;11.00;38.90;;;;;;5028579;28;20439;-83
2021/01/21 01:23:44;;;;;;;13.37;6.83;;;10.90;38.80;;;;;;5036164;28;20478;-84
2021/01/21 01:26:11;;;;;;;13.27;6.87;;;11.00;38.90;;;;;;5038675;28;20895;-83
2021/01/21 01:28:40;;;;;;;16.43;7.77;;;11.50;40.90;;;;;;5038395;28;20451;-84
2021/01/21 01:31:06;;;;;;;13.40;7.63;;;12.10;41.00;;;;;;5038440;28;20492;-83
2021/01/21 01:33:33;;;;;;;7.80;5.70;;;12.20;39.60;;;;;;5039255;28;20418;-82
2021/01/21 01:35:59;;;;;;;10.40;6.50;;;12.60;37.70;;;;;;5015970;28;20573;-82
2021/01/21 01:38:27;;;;;;;9.30;6.10;;;12.60;38.60;;;;;;5017438;28;20534;-84
2021/01/21 01:40:53;;;;;;;12.00;6.33;;;12.40;36.90;;;;;;5023792;28;20482;-85
2021/01/21 01:43:20;;;;;;;9.70;5.90;;;11.60;36.50;;;;;;5038170;28;20431;-83
2021/01/21 01:45:46;;;;;;;10.97;6.20;;;11.60;36.60;;;;;;5038678;28;20450;-84
2021/01/21 01:48:13;;;;;;;12.80;6.80;;;11.80;40.30;;;;;;5058838;28;20437;-84
2021/01/21 01:50:40;;;;;;;12.17;6.23;;;12.20;39.10;;;;;;5051500;28;20473;-84
2021/01/21 01:53:06;;;;;;;11.63;6.43;;;11.90;39.00;;;;;;5021618;28;20508;-82
2021/01/21 01:55:34;;;;;;;10.00;6.67;;;12.00;38.30;;;;;;5015714;28;20489;-82
2021/01/21 01:58:02;;;;;;;13.00;7.10;;;12.20;39.20;;;;;;5015379;28;20527;-82
2021/01/21 02:00:29;;;;;;;13.20;7.40;;;12.10;39.20;;;;;;5014959;28;20521;-82
2021/01/21 02:02:57;;;;;;;13.87;8.63;;;12.00;34.00;;;;;;5014863;28;20529;-83
2021/01/21 02:05:23;;;;;;;10.27;6.30;;;11.30;35.10;;;;;;4995764;28;20467;-83
2021/01/21 02:07:50;;;;;;;7.80;5.40;;;10.60;36.00;;;;;;5032274;28;20457;-83
2021/01/21 02:10:19;;;;;;;13.20;6.90;;;10.50;38.10;;;;;;5015791;28;20461;-83
2021/01/21 02:13:10;;;;;;;13.03;7.40;;;10.80;37.60;;;;;;5015503;28;20464;-83
2021/01/21 02:15:51;;;;;;;13.87;8.33;;;9.90;38.70;;;;;;4995837;28;20590;-83
2021/01/21 02:18:23;;;;;;;14.47;7.83;;;9.30;41.40;;;;;;4998770;28;20447;-83
2021/01/21 02:21:26;;;;;;;12.23;6.80;;;9.50;39.80;;;;;;5033533;28;20783;-83
2021/01/21 02:24:31;;;;;;;10.70;6.73;;;10.20;41.00;;;;;;5014482;28;20601;-83
2021/01/21 02:27:00;;;;;;;10.60;6.10;;;10.80;41.00;;;;;;5025833;28;20527;-83
2021/01/21 02:29:32;;;;;;;10.47;7.13;;;11.20;40.80;;;;;;5021678;28;20549;-84
2021/01/21 02:32:25;;;;;;;10.37;5.53;;;11.50;40.20;;;;;;5014350;28;20508;-83
2021/01/21 02:35:02;;;;;;;8.83;5.50;;;11.70;36.90;;;;;;5028649;28;20575;-83
2021/01/21 02:37:29;;;;;;;10.70;6.37;;;11.70;33.80;;;;;;5032604;28;20488;-83
2021/01/21 02:39:57;;;;;;;8.40;5.90;;;10.90;39.40;;;;;;5016656;28;20981;-84
2021/01/21 02:42:24;;;;;;;10.40;6.13;;;10.60;38.30;;;;;;5030327;28;20469;-83
2021/01/21 02:44:51;;;;;;;10.57;6.33;;;10.00;39.60;;;;;;5016267;28;20474;-84
2021/01/21 02:47:21;;;;;;;10.33;5.47;;;10.40;39.80;;;;;;5017877;28;20458;-84
2021/01/21 02:49:48;;;;;;;7.90;4.90;;;10.40;38.90;;;;;;5031719;28;20465;-84
2021/01/21 02:52:23;;;;;;;6.80;5.00;;;10.60;39.10;;;;;;5017058;28;20552;-84
2021/01/21 02:55:08;;;;;;;5.87;4.30;;;11.10;37.70;;;;;;5030162;28;20516;-84
2021/01/21 02:57:40;;;;;;;8.43;5.20;;;11.50;36.80;;;;;;5014458;28;20911;-84
2021/01/21 03:00:09;;;;;;;6.20;4.80;;;11.90;38.20;;;;;;5032475;28;20441;-83
2021/01/21 03:02:37;;;;;;;6.07;4.50;;;12.40;38.30;;;;;;5013763;28;20463;-83
2021/01/21 03:05:05;;;;;;;11.10;5.77;;;12.70;39.90;;;;;;5033384;28;20471;-84
2021/01/21 03:07:35;;;;;;;7.03;4.60;;;12.90;38.10;;;;;;5034942;28;20443;-84
2021/01/21 03:10:03;;;;;;;22.40;9.43;;;13.00;38.10;;;;;;5037161;28;20823;-83
2021/01/21 03:12:30;;;;;;;15.00;5.87;;;12.70;36.40;;;;;;5018363;28;20461;-83
2021/01/21 03:14:57;;;;;;;15.50;7.80;;;11.90;34.60;;;;;;5019305;28;20876;-83
2021/01/21 03:17:25;;;;;;;9.80;5.00;;;10.20;38.20;;;;;;5020038;28;20485;-84
2021/01/21 03:19:52;;;;;;;8.57;5.07;;;10.40;41.60;;;;;;5019952;28;20870;-83
2021/01/21 03:22:19;;;;;;;13.37;6.40;;;10.90;38.60;;;;;;5018893;28;20469;-83
2021/01/21 03:24:47;;;;;;;6.47;4.87;;;10.90;36.90;;;;;;5035108;28;20480;-83
2021/01/21 03:27:14;;;;;;;9.00;5.40;;;11.20;40.80;;;;;;5019544;28;20490;-84
2021/01/21 03:29:40;;;;;;;7.77;4.73;;;11.60;35.20;;;;;;5034830;28;20456;-83
2021/01/21 03:32:07;;;;;;;6.67;4.63;;;11.50;39.80;;;;;;5036540;28;20536;-83
2021/01/21 03:34:33;;;;;;;6.53;4.00;;;11.70;37.00;;;;;;5036344;28;20500;-83
2021/01/21 03:37:00;;;;;;;5.97;4.57;;;11.50;36.90;;;;;;5020532;28;20489;-83
2021/01/21 03:39:26;;;;;;;7.73;4.83;;;11.50;36.80;;;;;;5017600;28;20544;-83
2021/01/21 03:41:54;;;;;;;7.77;4.67;;;11.60;36.90;;;;;;5001493;28;20466;-83
2021/01/21 03:44:20;;;;;;;5.90;4.27;;;11.90;37.60;;;;;;5014459;28;20486;-83
2021/01/21 03:46:47;;;;;;;8.00;4.97;;;12.20;37.40;;;;;;5037154;28;20457;-83
2021/01/21 03:49:13;;;;;;;6.40;4.40;;;12.20;34.50;;;;;;5038306;28;20465;-83
2021/01/21 03:51:40;;;;;;;7.87;4.97;;;12.20;39.00;;;;;;5036664;28;20474;-83
2021/01/21 03:54:07;;;;;;;6.50;4.80;;;12.50;37.40;;;;;;5006392;28;20807;-83
2021/01/21 03:56:33;;;;;;;6.77;4.50;;;13.00;38.10;;;;;;5013826;28;20482;-83
2021/01/21 03:59:01;;;;;;;7.67;4.63;;;13.00;37.60;;;;;;5031010;28;20565;-83
2021/01/21 04:01:27;;;;;;;6.87;4.30;;;13.20;38.30;;;;;;5038065;28;20465;-83
2021/01/21 04:03:54;;;;;;;9.43;5.33;;;13.60;38.10;;;;;;5037217;28;20538;-83
2021/01/21 04:06:20;;;;;;;7.30;4.30;;;13.60;36.60;;;;;;5036132;28;20741;-83
2021/01/21 04:08:47;;;;;;;6.30;4.07;;;13.10;37.00;;;;;;5035834;28;20852;-83
2021/01/21 04:11:13;;;;;;;8.20;3.77;;;13.10;31.00;;;;;;5025896;28;20470;-83
2021/01/21 04:13:40;;;;;;;5.43;4.07;;;12.70;32.30;;;;;;5017162;28;20480;-83
2021/01/21 04:16:07;;;;;;;6.37;4.07;;;12.20;35.60;;;;;;5026229;28;20479;-83
2021/01/21 04:18:34;;;;;;;5.83;3.87;;;12.30;37.50;;;;;;5035077;28;20455;-83
2021/01/21 04:21:01;;;;;;;6.40;3.87;;;12.50;37.20;;;;;;5035999;28;20468;-83
2021/01/21 04:23:27;;;;;;;4.63;3.67;;;12.70;37.90;;;;;;5035647;28;20460;-83
2021/01/21 04:25:53;;;;;;;7.40;3.30;;;13.00;36.60;;;;;;5027555;28;20461;-83
2021/01/21 04:28:20;;;;;;;4.30;3.13;;;13.00;37.50;;;;;;5024177;28;20682;-83
2021/01/21 04:30:46;;;;;;;4.50;3.30;;;12.70;34.60;;;;;;5027152;28;20479;-83
2021/01/21 04:33:14;;;;;;;10.57;4.70;;;13.00;34.80;;;;;;5017108;28;20480;-83
2021/01/21 04:35:40;;;;;;;7.97;4.87;;;13.30;36.40;;;;;;5016030;28;20527;-83
2021/01/21 04:38:07;;;;;;;5.40;4.07;;;13.50;35.50;;;;;;5016400;28;20477;-83
2021/01/21 04:40:33;;;;;;;7.40;4.13;;;13.60;35.60;;;;;;5021638;28;20453;-84
2021/01/21 04:43:00;;;;;;;4.30;3.67;;;13.70;36.90;;;;;;5030755;28;20457;-84
2021/01/21 04:45:26;;;;;;;8.37;5.30;;;14.00;37.40;;;;;;5041610;28;20473;-84
2021/01/21 04:47:54;;;;;;;3.50;2.97;;;14.10;33.10;;;;;;5027471;28;20446;-84
2021/01/21 04:50:22;;;;;;;6.40;3.93;;;14.00;32.10;;;;;;5029391;28;20859;-84
2021/01/21 04:52:51;;;;;;;7.10;5.13;;;14.00;34.00;;;;;;5046878;28;20457;-85
2021/01/21 04:55:22;;;;;;;5.10;3.70;;;13.90;34.50;;;;;;5034882;28;20486;-85
2021/01/21 04:57:54;;;;;;;6.10;3.80;;;13.80;36.10;;;;;;5006482;28;20502;-84
2021/01/21 05:00:22;;;;;;;9.80;5.50;;;13.90;35.60;;;;;;5019363;28;20466;-84
2021/01/21 05:02:50;;;;;;;11.23;5.63;;;14.00;32.30;;;;;;5017770;28;20469;-84
2021/01/21 05:05:17;;;;;;;4.47;3.80;;;13.30;31.90;;;;;;5018184;28;20485;-84
2021/01/21 05:07:45;;;;;;;4.00;3.23;;;13.40;37.30;;;;;;5017002;28;20446;-84
2021/01/21 05:10:13;;;;;;;3.60;3.10;;;13.70;36.50;;;;;;5018073;28;20474;-84
2021/01/21 05:12:40;;;;;;;3.60;3.00;;;13.80;35.20;;;;;;5017307;28;20500;-84
2021/01/21 05:15:07;;;;;;;8.63;3.87;;;13.80;33.50;;;;;;5018204;28;20564;-85
2021/01/21 05:17:35;;;;;;;6.60;3.90;;;13.90;32.60;;;;;;5020804;28;21016;-84
2021/01/21 05:20:02;;;;;;;5.33;3.70;;;13.80;33.10;;;;;;5037975;28;20456;-84
2021/01/21 05:22:28;;;;;;;2.60;2.10;;;13.70;32.60;;;;;;5032225;28;20471;-84
2021/01/21 05:24:56;;;;;;;2.63;2.43;;;13.60;29.30;;;;;;5019378;28;20507;-85
2021/01/21 05:27:23;;;;;;;4.60;2.03;;;13.30;31.10;;;;;;5031942;28;20572;-84
2021/01/21 05:29:50;;;;;;;2.40;2.20;;;13.10;29.00;;;;;;5015872;28;20465;-84
2021/01/21 05:32:18;;;;;;;7.43;2.77;;;12.90;28.70;;;;;;5018121;28;20497;-84
2021/01/21 05:34:47;;;;;;;5.00;2.10;;;12.60;30.70;;;;;;5031213;28;20508;-84
2021/01/21 05:37:15;;;;;;;2.43;2.30;;;12.70;30.30;;;;;;5018258;28;20504;-84
2021/01/21 05:39:42;;;;;;;2.73;2.43;;;12.60;29.70;;;;;;5030569;28;20469;-84
2021/01/21 05:42:11;;;;;;;7.43;2.67;;;12.90;30.00;;;;;;5018669;28;20468;-84
2021/01/21 05:44:38;;;;;;;6.67;2.93;;;13.50;31.90;;;;;;5033683;28;20492;-84
2021/01/21 05:47:06;;;;;;;2.43;2.23;;;13.90;31.70;;;;;;5017074;28;20458;-84
2021/01/21 05:49:33;;;;;;;2.63;2.10;;;14.40;31.80;;;;;;5015628;28;20460;-84
2021/01/21 05:52:00;;;;;;;3.03;2.00;;;14.50;30.30;;;;;;5017081;28;20488;-84
2021/01/21 05:54:28;;;;;;;3.57;2.20;;;13.80;28.20;;;;;;5034170;28;20500;-84
2021/01/21 05:56:55;;;;;;;2.50;2.30;;;13.50;28.40;;;;;;5031273;28;20880;-84
2021/01/21 05:59:24;;;;;;;2.50;2.20;;;13.10;28.40;;;;;;5015140;28;20469;-84
2021/01/21 06:01:52;;;;;;;2.83;2.20;;;12.70;30.60;;;;;;5016897;28;20516;-84
2021/01/21 06:04:21;;;;;;;2.87;2.07;;;12.20;30.90;;;;;;5034131;28;21121;-84
2021/01/21 06:06:47;;;;;;;3.47;2.30;;;11.90;28.70;;;;;;5031395;28;20958;-84
2021/01/21 06:09:16;;;;;;;3.03;2.60;;;12.00;29.30;;;;;;5016921;28;20510;-84
2021/01/21 06:11:43;;;;;;;4.07;2.40;;;12.30;29.50;;;;;;5041303;28;20469;-85
2021/01/21 06:14:11;;;;;;;5.10;2.37;;;12.30;32.00;;;;;;5034880;28;20532;-84
2021/01/21 06:16:39;;;;;;;2.63;2.33;;;12.10;30.10;;;;;;5017914;28;20521;-84
2021/01/21 06:19:05;;;;;;;2.40;2.20;;;12.20;33.70;;;;;;5030309;28;20469;-84
2021/01/21 06:21:36;;;;;;;2.70;2.50;;;12.30;28.40;;;;;;5016694;28;20511;-84
2021/01/21 06:24:05;;;;;;;2.63;2.00;;;12.10;29.00;;;;;;5031063;28;20555;-84
2021/01/21 06:26:38;;;;;;;4.20;2.03;;;12.40;27.70;;;;;;5013133;28;20462;-85
2021/01/21 06:29:06;;;;;;;2.50;2.17;;;12.60;28.90;;;;;;4999287;28;20458;-84
2021/01/21 06:31:37;;;;;;;2.20;2.00;;;12.50;27.60;;;;;;5014663;28;20967;-84
2021/01/21 06:34:08;;;;;;;2.43;2.23;;;12.60;29.40;;;;;;5015296;28;20490;-84
2021/01/21 06:36:41;;;;;;;2.53;2.37;;;12.80;28.30;;;;;;5017682;28;20477;-85
2021/01/21 06:39:14;;;;;;;2.43;2.27;;;12.60;27.70;;;;;;5034858;28;20928;-83
2021/01/21 06:41:45;;;;;;;2.67;2.20;;;12.50;27.30;;;;;;5033487;28;20920;-83
2021/01/21 06:44:16;;;;;;;4.10;2.33;;;12.50;26.60;;;;;;5033693;28;21012;-84
2021/01/21 06:46:46;;;;;;;2.50;2.20;;;12.40;29.80;;;;;;5029400;28;20551;-83
2021/01/21 06:49:14;;;;;;;2.50;2.30;;;12.50;30.70;;;;;;5017760;28;20847;-83
2021/01/21 06:51:45;;;;;;;2.30;2.10;;;12.80;29.70;;;;;;5028335;28;20516;-84
2021/01/21 06:54:13;;;;;;;2.43;2.00;;;12.80;29.10;;;;;;5009554;28;20569;-84
2021/01/21 06:56:40;;;;;;;2.33;2.13;;;12.60;29.50;;;;;;5006911;28;20931;-83
2021/01/21 06:59:06;;;;;;;2.60;2.00;;;12.50;29.70;;;;;;5031215;28;20461;-83
2021/01/21 07:01:47;;;;;;;3.30;2.83;;;12.80;30.30;;;;;;5019273;28;20465;-84
2021/01/21 07:04:27;;;;;;;5.20;2.50;;;12.80;29.50;;;;;;5035655;28;20576;-84
2021/01/21 07:07:06;;;;;;;4.80;2.53;;;12.70;31.50;;;;;;5032871;28;20458;-84
2021/01/21 07:09:36;;;;;;;3.23;2.60;;;13.10;30.00;;;;;;5016041;28;20461;-84
2021/01/21 07:12:04;;;;;;;4.10;2.60;;;13.30;30.30;;;;;;5035234;28;20461;-83
2021/01/21 07:14:33;;;;;;;5.70;2.20;;;13.40;30.40;;;;;;5030503;28;20982;-84
2021/01/21 07:17:01;;;;;;;2.77;2.43;;;13.50;31.30;;;;;;5013666;28;20835;-84
2021/01/21 07:19:30;;;;;;;2.93;2.50;;;13.60;32.20;;;;;;5013525;28;20498;-84
2021/01/21 07:21:57;;;;;;;2.57;2.37;;;13.80;30.00;;;;;;5022442;28;20457;-84
2021/01/21 07:24:25;;;;;;;2.37;2.17;;;13.60;31.50;;;;;;5033100;28;20852;-84
2021/01/21 07:26:54;;;;;;;2.60;2.40;;;13.90;32.10;;;;;;5023653;28;21009;-84
2021/01/21 07:29:21;;;;;;;7.03;2.57;;;13.80;31.50;;;;;;5013771;28;20477;-85
2021/01/21 07:32:09;;;;;;;3.50;2.40;;;13.60;33.50;;;;;;5013043;28;20492;-85
2021/01/21 07:34:46;;;;;;;2.73;2.40;;;13.50;35.10;;;;;;5013607;28;20584;-84
2021/01/21 07:37:17;;;;;;;2.57;2.37;;;12.90;35.00;;;;;;5023870;28;20579;-85
2021/01/21 07:39:48;;;;;;;2.90;2.20;;;12.60;33.20;;;;;;5022327;28;20450;-84
2021/01/21 07:42:15;;;;;;;2.27;1.90;;;12.40;33.50;;;;;;5023293;28;20922;-84
2021/01/21 07:44:58;;;;;;;2.40;2.20;;;12.50;34.80;;;;;;5021851;28;20505;-84
2021/01/21 07:47:27;;;;;;;2.80;2.60;;;12.60;34.30;;;;;;5012979;28;20465;-84
2021/01/21 07:50:29;;;;;;;6.03;2.23;;;12.70;33.10;;;;;;5013526;28;20466;-83
2021/01/21 07:52:57;;;;;;;2.43;2.17;;;12.80;33.60;;;;;;5031021;28;20462;-85
2021/01/21 07:55:27;;;;;;;2.30;2.10;;;12.70;34.00;;;;;;5032975;28;20485;-84
2021/01/21 07:57:54;;;;;;;2.47;2.00;;;12.80;34.80;;;;;;5015352;28;20485;-85
2021/01/21 08:00:21;;;;;;;2.40;2.20;;;12.90;33.80;;;;;;4996411;28;20496;-84
2021/01/21 08:02:50;;;;;;;3.17;2.30;;;13.10;34.50;;;;;;5027436;28;20590;-84
2021/01/21 08:05:18;;;;;;;2.27;2.07;;;12.60;34.20;;;;;;5018484;28;20470;-84
2021/01/21 08:07:46;;;;;;;3.00;2.53;;;12.30;35.30;;;;;;5033900;28;20460;-84
2021/01/21 08:10:14;;;;;;;1.97;1.87;;;12.30;35.60;;;;;;5002195;28;20459;-84
2021/01/21 08:12:40;;;;;;;2.00;1.90;;;12.20;36.90;;;;;;5014471;28;20902;-84
2021/01/21 08:15:17;;;;;;;2.67;2.00;;;12.40;36.00;;;;;;5015773;28;20556;-84
2021/01/21 08:17:45;;;;;;;3.00;2.10;;;12.50;35.10;;;;;;5016341;28;20906;-84
2021/01/21 08:20:13;;;;;;;2.83;2.10;;;12.20;36.20;;;;;;5015924;28;20466;-84
2021/01/21 08:22:53;;;;;;;3.70;2.60;;;12.50;35.20;;;;;;4999804;28;20520;-84
2021/01/21 08:25:20;;;;;;;2.60;2.40;;;12.50;35.80;;;;;;5014154;28;20484;-84
2021/01/21 08:27:48;;;;;;;2.43;2.30;;;12.60;35.10;;;;;;5015792;28;20491;-84
2021/01/21 08:30:17;;;;;;;2.40;2.20;;;12.50;36.60;;;;;;5015972;28;20453;-84
2021/01/21 08:32:45;;;;;;;2.10;1.90;;;12.70;37.30;;;;;;5017113;28;20455;-84
2021/01/21 08:35:16;;;;;;;2.03;1.77;;;12.80;36.10;;;;;;5015351;28;20567;-85
2021/01/21 08:37:43;;;;;;;1.93;1.83;;;12.50;36.00;;;;;;4997134;28;20561;-84
2021/01/21 08:40:11;;;;;;;2.27;2.07;;;12.50;36.50;;;;;;5014595;28;20464;-84
2021/01/21 08:42:37;;;;;;;3.93;2.40;;;12.60;35.60;;;;;;5015255;28;20459;-84
2021/01/21 08:45:05;;;;;;;2.20;2.00;;;13.10;34.80;;;;;;5033253;28;20487;-84
2021/01/21 08:47:43;;;;;;;1.90;1.80;;;13.00;36.00;;;;;;5033768;28;20910;-85
2021/01/21 08:50:11;;;;;;;8.47;2.00;;;12.70;37.30;;;;;;5016119;28;20449;-84
2021/01/21 08:52:56;;;;;;;2.07;1.93;;;12.80;37.50;;;;;;5016544;28;20492;-84
2021/01/21 08:55:23;;;;;;;2.30;2.10;;;13.30;36.50;;;;;;5033830;28;21027;-85
2021/01/21 08:58:02;;;;;;;2.17;2.00;;;13.30;36.00;;;;;;5032771;28;20469;-84
2021/01/21 09:00:30;;;;;;;2.30;2.10;;;13.50;36.30;;;;;;5027704;28;20465;-84
2021/01/21 09:02:57;;;;;;;1.87;1.80;;;13.50;36.10;;;;;;5034585;28;20453;-84
2021/01/21 09:05:24;;;;;;;3.20;2.03;;;13.40;36.30;;;;;;5041553;28;20571;-85
2021/01/21 09:07:50;;;;;;;1.93;1.83;;;13.40;36.50;;;;;;5015969;28;20463;-85
2021/01/21 09:10:18;;;;;;;2.30;2.00;;;13.20;37.00;;;;;;5017337;28;20986;-84
2021/01/21 09:12:45;;;;;;;2.63;2.00;;;13.40;36.20;;;;;;5034434;28;20468;-85
2021/01/21 09:15:14;;;;;;;2.07;1.93;;;13.90;35.50;;;;;;5033104;28;20490;-84
2021/01/21 09:17:41;;;;;;;1.83;1.80;;;13.60;36.60;;;;;;5032324;28;20486;-85
2021/01/21 09:20:22;;;;;;;2.23;2.03;;;13.20;36.80;;;;;;5014659;28;20535;-85
2021/01/21 09:22:49;;;;;;;1.90;1.83;;;13.40;36.90;;;;;;5015286;28;20829;-85
2021/01/21 09:25:24;;;;;;;2.10;1.97;;;13.30;36.80;;;;;;5018443;28;20591;-85
2021/01/21 09:27:54;;;;;;;3.00;2.07;;;13.70;36.30;;;;;;5035815;28;20435;-85
2021/01/21 09:30:22;;;;;;;2.27;2.13;;;13.50;36.40;;;;;;5034025;28;20555;-85
2021/01/21 09:32:49;;;;;;;2.17;1.97;;;13.60;36.70;;;;;;5033650;28;20563;-85
2021/01/21 09:35:16;;;;;;;2.47;1.93;;;13.50;37.40;;;;;;5029933;28;20486;-85
2021/01/21 09:37:45;;;;;;;2.30;2.10;;;13.40;37.00;;;;;;5018461;28;20853;-85
2021/01/21 09:40:13;;;;;;;2.00;1.90;;;13.40;37.00;;;;;;5030279;28;20468;-85
2021/01/21 09:42:41;;;;;;;3.70;2.10;;;13.40;37.70;;;;;;5015258;28;20468;-85
2021/01/21 09:45:09;;;;;;;1.93;1.90;;;13.60;37.30;;;;;;5018250;28;20571;-85
2021/01/21 09:47:36;;;;;;;2.13;1.97;;;14.00;36.90;;;;;;5033936;28;20554;-83
2021/01/21 09:50:02;;;;;;;2.30;2.10;;;13.90;36.20;;;;;;5028392;28;21034;-85
2021/01/21 09:52:29;;;;;;;1.87;1.80;;;14.00;35.80;;;;;;5010675;28;20821;-85
2021/01/21 09:54:55;;;;;;;1.80;1.70;;;13.90;36.40;;;;;;5002896;28;20485;-84
2021/01/21 09:57:22;;;;;;;2.20;2.00;;;14.10;36.40;;;;;;5029828;28;20482;-85
2021/01/21 09:59:49;;;;;;;2.00;1.90;;;14.20;36.90;;;;;;5015789;28;20943;-85
2021/01/21 10:02:16;;;;;;;1.90;1.80;;;13.90;36.00;;;;;;5018259;28;20445;-85
2021/01/21 10:04:42;;;;;;;2.83;1.93;;;14.00;36.50;;;;;;5031222;28;20925;-85
2021/01/21 10:07:09;;;;;;;2.20;2.00;;;14.20;35.60;;;;;;5018340;28;20962;-84
2021/01/21 10:09:37;;;;;;;3.50;1.97;;;14.00;36.00;;;;;;5034931;28;20495;-84
2021/01/21 10:12:04;;;;;;;2.00;1.90;;;14.10;36.40;;;;;;5035213;28;21037;-84
2021/01/21 10:14:31;;;;;;;1.90;1.80;;;13.90;35.90;;;;;;5049864;28;20493;-85
2021/01/21 10:16:59;;;;;;;1.87;1.70;;;14.00;36.40;;;;;;5037667;28;20489;-84
2021/01/21 10:19:26;;;;;;;2.30;2.10;;;14.30;36.10;;;;;;5035812;28;20433;-84
2021/01/21 10:21:53;;;;;;;16.37;2.33;;;14.70;36.00;;;;;;5028026;28;20438;-84
2021/01/21 10:24:21;;;;;;;1.77;1.70;;;14.70;34.80;;;;;;5049628;28;20445;-84
2021/01/21 10:26:48;;;;;;;2.37;1.80;;;14.60;35.30;;;;;;5018719;28;20435;-84
2021/01/21 10:29:14;;;;;;;2.47;1.80;;;14.40;35.60;;;;;;5036778;28;20450;-85
2021/01/21 10:31:41;;;;;;;1.73;1.63;;;14.50;35.70;;;;;;5031958;28;20453;-86
2021/01/21 10:34:09;;;;;;;4.07;2.00;;;14.40;36.40;;;;;;5028528;28;20488;-86
2021/01/21 10:36:36;;;;;;;2.83;1.87;;;14.40;36.30;;;;;;5027776;28;20489;-86
2021/01/21 10:39:04;;;;;;;2.33;2.13;;;14.60;36.40;;;;;;5029062;28;20449;-85
2021/01/21 10:41:31;;;;;;;2.63;2.03;;;14.80;36.10;;;;;;5030131;28;20461;-86
2021/01/21 10:43:57;;;;;;;3.87;2.00;;;14.90;35.10;;;;;;5020074;28;20466;-85
2021/01/21 10:46:24;;;;;;;1.80;1.70;;;15.00;35.10;;;;;;5017661;28;20446;-85
2021/01/21 10:48:51;;;;;;;2.17;2.00;;;14.80;35.30;;;;;;5015908;28;20466;-85
2021/01/21 10:51:18;;;;;;;1.80;1.70;;;14.70;35.30;;;;;;5031727;28;20461;-85
2021/01/21 10:53:46;;;;;;;1.90;1.67;;;14.70;36.00;;;;;;5034050;28;20461;-85
2021/01/21 10:56:12;;;;;;;1.93;1.83;;;15.00;36.10;;;;;;5033040;28;20492;-85
2021/01/21 10:58:39;;;;;;;1.80;1.73;;;15.10;35.00;;;;;;5016688;28;20469;-84
2021/01/21 11:01:05;;;;;;;10.10;5.37;;;15.30;34.40;;;;;;5015962;28;20577;-86
2021/01/21 11:03:32;;;;;;;2.00;1.90;;;15.30;35.00;;;;;;5013268;28;20528;-85
2021/01/21 11:05:58;;;;;;;3.20;1.90;;;15.20;35.20;;;;;;5013481;28;20458;-85
2021/01/21 11:08:26;;;;;;;1.93;1.83;;;14.90;35.00;;;;;;5039835;28;20452;-85
2021/01/21 11:10:52;;;;;;;2.30;2.10;;;15.00;36.20;;;;;;5041462;28;21024;-86
2021/01/21 11:13:19;;;;;;;1.83;1.83;;;15.00;35.40;;;;;;5042362;28;20457;-85
2021/01/21 11:15:46;;;;;;;2.27;1.70;;;15.20;36.10;;;;;;5033618;28;20531;-85
2021/01/21 11:18:12;;;;;;;1.80;1.70;;;15.40;35.70;;;;;;5020386;28;20486;-84
2021/01/21 11:20:40;;;;;;;1.70;1.60;;;15.10;36.20;;;;;;5017465;28;20671;-84
2021/01/21 11:23:07;;;;;;;2.00;1.80;;;15.20;35.40;;;;;;5034423;28;20967;-85
2021/01/21 11:25:35;;;;;;;2.20;2.00;;;15.60;35.20;;;;;;5020412;28;20566;-85
2021/01/21 11:28:01;;;;;;;1.97;1.90;;;15.40;34.80;;;;;;5008138;28;20465;-86
2021/01/21 11:30:30;;;;;;;3.30;1.70;;;15.20;34.90;;;;;;5029383;28;20588;-84
2021/01/21 11:32:56;;;;;;;1.90;1.87;;;15.40;35.50;;;;;;5033338;28;20454;-85
2021/01/21 11:35:23;;;;;;;2.30;1.70;;;15.60;35.30;;;;;;5021308;28;20485;-85
2021/01/21 11:37:49;;;;;;;1.80;1.70;;;15.80;35.00;;;;;;5022832;28;20580;-84
2021/01/21 11:40:16;;;;;;;2.73;1.73;;;15.60;35.10;;;;;;5025431;28;20540;-84
2021/01/21 11:42:44;;;;;;;3.10;1.80;;;15.90;34.50;;;;;;5016192;28;20527;-85
2021/01/21 11:45:11;;;;;;;3.10;2.07;;;15.50;35.40;;;;;;5026105;28;20469;-85
2021/01/21 11:47:39;;;;;;;1.80;1.73;;;15.30;35.00;;;;;;5026472;28;20520;-85
2021/01/21 11:50:12;;;;;;;6.80;1.80;;;15.30;35.30;;;;;;5027478;28;20474;-83
2021/01/21 11:52:38;;;;;;;1.70;1.60;;;15.20;35.30;;;;;;5037054;28;20425;-83
2021/01/21 11:55:07;;;;;;;1.77;1.70;;;15.50;34.50;;;;;;5037531;28;20457;-84
2021/01/21 11:57:34;;;;;;;2.23;2.07;;;15.00;35.30;;;;;;5037379;28;20567;-83
2021/01/21 12:00:02;;;;;;;1.80;1.70;;;15.10;35.60;;;;;;5037189;28;20499;-83
2021/01/21 12:02:28;;;;;;;2.17;2.03;;;15.20;35.90;;;;;;5043174;28;20476;-83
2021/01/21 12:04:55;;;;;;;6.93;3.67;;;14.90;36.20;;;;;;5039242;28;20567;-83
2021/01/21 12:07:21;;;;;;;2.40;2.20;;;15.10;36.50;;;;;;5037465;28;20530;-82
2021/01/21 12:09:47;;;;;;;4.50;1.70;;;15.10;35.80;;;;;;5039701;28;20552;-85
2021/01/21 12:12:14;;;;;;;2.30;1.60;;;15.30;35.60;;;;;;5037767;28;20816;-84
2021/01/21 12:14:40;;;;;;;1.80;1.70;;;15.60;35.60;;;;;;5036927;28;20460;-84
2021/01/21 12:17:08;;;;;;;2.40;2.03;;;15.50;35.80;;;;;;5037105;28;20516;-84
2021/01/21 12:19:34;;;;;;;2.03;1.67;;;15.40;35.40;;;;;;5039376;28;20962;-85
2021/01/21 12:22:01;;;;;;;1.70;1.60;;;15.40;36.10;;;;;;5042881;28;20445;-85
2021/01/21 12:24:27;;;;;;;2.73;1.80;;;15.50;35.00;;;;;;5037357;28;20555;-85
2021/01/21 12:26:54;;;;;;;2.20;1.83;;;15.40;35.30;;;;;;5037125;28;20465;-85
2021/01/21 12:29:20;;;;;;;1.90;1.80;;;15.40;35.80;;;;;;5036549;28;20521;-85
2021/01/21 12:31:46;;;;;;;2.60;2.00;;;15.50;35.40;;;;;;5038887;28;20484;-85
2021/01/21 12:34:14;;;;;;;3.10;2.20;;;15.60;35.70;;;;;;5037313;28;20576;-85
2021/01/21 12:36:40;;;;;;;2.40;2.27;;;15.70;35.60;;;;;;5037960;28;20489;-85
2021/01/21 12:39:07;;;;;;;2.00;1.90;;;15.50;35.50;;;;;;5039667;28;20882;-85
2021/01/21 12:41:33;;;;;;;2.00;1.90;;;15.50;35.90;;;;;;5036061;28;20514;-85
2021/01/21 12:44:00;;;;;;;1.87;1.77;;;15.80;35.40;;;;;;5036194;28;20469;-85
2021/01/21 12:46:28;;;;;;;2.30;2.00;;;15.80;35.30;;;;;;5035581;28;20959;-84
2021/01/21 12:48:55;;;;;;;2.97;1.77;;;15.80;35.20;;;;;;5035762;28;20538;-85
2021/01/21 12:51:23;;;;;;;2.00;1.90;;;15.60;35.10;;;;;;5034425;28;20788;-84